Time;durP1;ratioP1;P1;durP2;ratioP2;P2;SDS_P1;SDS_P2;PMS_P1;PMS_P2;Temp;Humidity;BMP_temperature;BMP_pressure;BME280_temperature;BME280_humidity;BME280_pressure;Samples;Min_cycle;Max_cycle;Signal;HPM_P1;HPM_P2
2021/07/11 00:00:06;;;;;;;12.57;8.65;;;;;;;19.26;66.58;101479.72;5069213;28;20052;-59
2021/07/11 00:02:33;;;;;;;14.05;8.75;;;;;;;19.24;66.72;101476.38;5070073;28;20044;-59
2021/07/11 00:05:01;;;;;;;12.70;8.43;;;;;;;19.25;66.89;101480.69;5054841;28;20060;-59
2021/07/11 00:07:31;;;;;;;11.90;8.60;;;;;;;19.34;67.13;101479.84;5069746;28;20032;-59
2021/07/11 00:09:58;;;;;;;12.20;8.23;;;;;;;19.31;68.04;101485.47;5074757;28;20086;-59
2021/07/11 00:12:26;;;;;;;11.65;8.02;;;;;;;19.24;68.18;101485.19;5075524;28;20053;-59
2021/07/11 00:14:53;;;;;;;11.40;7.63;;;;;;;19.25;68.12;101489.56;5072666;28;20060;-58
2021/07/11 00:17:21;;;;;;;13.95;8.82;;;;;;;19.15;68.32;101488.72;5073756;28;20055;-58
2021/07/11 00:19:48;;;;;;;13.23;8.80;;;;;;;19.13;68.37;101489.81;5073698;28;20109;-58
2021/07/11 00:22:15;;;;;;;15.18;8.20;;;;;;;19.07;69.05;101489.44;5073580;28;20052;-58
2021/07/11 00:24:43;;;;;;;13.40;7.80;;;;;;;19.13;69.77;101489.81;5073897;28;20051;-59
2021/07/11 00:27:11;;;;;;;11.45;7.60;;;;;;;19.04;70.31;101492.34;5074902;28;20052;-58
2021/07/11 00:29:37;;;;;;;11.88;7.55;;;;;;;19.09;70.46;101500.78;5073761;28;20443;-58
2021/07/11 00:32:06;;;;;;;12.07;7.85;;;;;;;19.16;69.94;101498.41;5075107;28;20059;-59
2021/07/11 00:34:34;;;;;;;11.55;7.57;;;;;;;19.00;70.14;101490.94;5089632;28;20505;-58
2021/07/11 00:37:01;;;;;;;12.30;7.57;;;;;;;18.94;70.27;101488.84;5072044;28;20052;-58
2021/07/11 00:39:27;;;;;;;12.00;8.82;;;;;;;19.00;70.47;101482.94;5071864;28;20047;-58
2021/07/11 00:41:54;;;;;;;15.20;9.55;;;;;;;18.91;71.23;101489.13;5056820;28;20052;-58
2021/07/11 00:44:21;;;;;;;15.00;8.55;;;;;;;18.97;71.90;101491.22;5071870;28;20053;-58
2021/07/11 00:46:48;;;;;;;15.95;9.50;;;;;;;18.92;70.61;101489.00;5072479;28;20041;-58
2021/07/11 00:49:15;;;;;;;13.43;9.55;;;;;;;18.86;70.79;101484.19;5073157;28;20049;-58
2021/07/11 00:51:42;;;;;;;12.85;9.13;;;;;;;18.81;72.20;101482.91;5073900;28;20072;-58
2021/07/11 00:54:09;;;;;;;14.52;10.10;;;;;;;18.84;71.27;101486.16;5072000;28;20082;-58
2021/07/11 00:56:36;;;;;;;13.32;9.20;;;;;;;18.74;71.34;101479.97;5073017;28;20050;-58
2021/07/11 00:59:03;;;;;;;13.52;8.80;;;;;;;18.84;71.46;101480.81;5074006;28;20048;-59
2021/07/11 01:01:34;;;;;;;13.27;8.63;;;;;;;18.92;71.92;101474.81;5070457;28;20110;-59
2021/07/11 01:04:05;;;;;;;14.85;9.57;;;;;;;18.88;72.56;101476.06;5088869;28;20045;-58
2021/07/11 01:06:38;;;;;;;13.65;9.77;;;;;;;18.93;72.94;101473.84;5093119;28;20366;-58
2021/07/11 01:09:07;;;;;;;16.30;9.88;;;;;;;18.95;72.21;101481.69;5076532;28;20060;-59
2021/07/11 01:11:48;;;;;;;12.75;8.60;;;;;;;18.98;72.14;101479.59;5094544;28;20051;-59
2021/07/11 01:14:16;;;;;;;12.65;8.98;;;;;;;19.01;72.17;101476.66;5092706;28;20044;-58
2021/07/11 01:16:47;;;;;;;14.88;9.98;;;;;;;18.99;71.63;101485.75;5092318;28;20452;-59
2021/07/11 01:19:31;;;;;;;14.88;9.48;;;;;;;18.82;72.47;101487.28;5091668;28;20119;-58
2021/07/11 01:22:03;;;;;;;15.18;10.02;;;;;;;18.72;72.88;101488.09;5074339;28;20044;-59
2021/07/11 01:24:33;;;;;;;16.15;9.93;;;;;;;18.54;73.76;101484.41;5093013;28;20076;-57
2021/07/11 01:27:02;;;;;;;17.58;10.18;;;;;;;18.62;73.01;101486.38;5057851;28;20139;-58
2021/07/11 01:29:30;;;;;;;15.25;10.35;;;;;;;18.67;72.79;101486.81;5073376;28;20563;-58
2021/07/11 01:31:57;;;;;;;16.48;9.55;;;;;;;18.69;73.94;101488.38;5075925;28;20040;-58
2021/07/11 01:34:24;;;;;;;15.52;9.68;;;;;;;18.65;73.89;101488.78;5076145;28;20094;-58
2021/07/11 01:36:52;;;;;;;17.75;11.13;;;;;;;18.67;72.79;101482.31;5075702;28;20047;-51
2021/07/11 01:39:19;;;;;;;16.80;11.32;;;;;;;18.66;72.62;101488.63;5073599;28;20546;-52
2021/07/11 01:41:46;;;;;;;19.05;12.10;;;;;;;18.73;72.34;101495.13;5072442;28;20072;-54
2021/07/11 01:44:13;;;;;;;15.93;11.07;;;;;;;18.72;72.46;101488.09;5071379;28;20052;-51
2021/07/11 01:46:41;;;;;;;16.48;11.27;;;;;;;18.69;72.65;101496.38;5071878;28;20380;-52
2021/07/11 01:49:12;;;;;;;19.35;11.80;;;;;;;18.70;72.81;101498.03;5091326;28;20044;-53
2021/07/11 01:51:40;;;;;;;15.77;11.00;;;;;;;18.72;72.99;101495.25;5093425;28;20059;-58
2021/07/11 01:54:07;;;;;;;14.55;10.93;;;;;;;18.81;73.61;101499.72;5093337;28;20036;-52
2021/07/11 01:56:34;;;;;;;16.42;10.70;;;;;;;18.79;73.34;101499.03;5075191;28;20044;-52
2021/07/11 01:59:01;;;;;;;15.15;11.27;;;;;;;18.72;73.70;101495.25;5092998;28;20066;-54
2021/07/11 02:01:28;;;;;;;16.52;10.85;;;;;;;18.70;73.35;101498.03;5092906;28;20120;-58
2021/07/11 02:03:55;;;;;;;17.67;10.43;;;;;;;18.66;74.11;101498.44;5090554;28;20421;-57
2021/07/11 02:06:22;;;;;;;15.93;11.65;;;;;;;18.66;73.24;101498.44;5073568;28;20048;-58
2021/07/11 02:08:49;;;;;;;19.38;11.90;;;;;;;18.61;73.93;101506.00;5073720;28;20054;-58
2021/07/11 02:11:16;;;;;;;18.00;10.95;;;;;;;18.70;74.42;101494.53;5090851;28;20054;-58
2021/07/11 02:14:04;;;;;;;18.35;10.95;;;;;;;18.73;74.60;101502.25;5092676;28;20059;-58
2021/07/11 02:16:37;;;;;;;16.98;11.88;;;;;;;18.77;75.40;101494.81;5071805;28;20044;-58
2021/07/11 02:19:04;;;;;;;16.13;11.65;;;;;;;18.71;75.59;101496.22;5073258;28;20098;-58
2021/07/11 02:21:31;;;;;;;19.75;12.32;;;;;;;18.68;75.30;101497.34;5092036;28;20093;-59
2021/07/11 02:24:01;;;;;;;18.83;12.50;;;;;;;18.67;75.48;101495.66;5091129;28;20055;-58
2021/07/11 02:26:29;;;;;;;19.67;13.68;;;;;;;18.65;75.90;101496.75;5072448;28;20047;-58
2021/07/11 02:28:58;;;;;;;22.05;15.10;;;;;;;18.41;76.62;101506.78;5091231;28;20098;-58
2021/07/11 02:31:29;;;;;;;20.30;14.60;;;;;;;18.48;77.28;101507.09;5092490;28;20075;-58
2021/07/11 02:33:56;;;;;;;21.13;14.68;;;;;;;18.43;78.16;101504.00;5092654;28;20044;-59
2021/07/11 02:36:26;;;;;;;20.40;14.85;;;;;;;18.33;78.01;101505.78;5092584;28;20043;-58
2021/07/11 02:39:00;;;;;;;21.90;15.27;;;;;;;18.34;78.68;101510.97;5092734;28;20151;-58
2021/07/11 02:41:29;;;;;;;21.45;15.35;;;;;;;18.31;79.34;101505.06;5090436;28;20051;-57
2021/07/11 02:43:58;;;;;;;22.90;15.35;;;;;;;18.28;79.54;101505.34;5090556;28;20089;-57
2021/07/11 02:46:27;;;;;;;24.92;17.08;;;;;;;18.16;80.92;101507.25;5070553;28;20044;-57
2021/07/11 02:48:56;;;;;;;23.73;17.27;;;;;;;18.09;81.52;101512.25;5071628;28;20412;-48
2021/07/11 02:51:25;;;;;;;25.83;17.80;;;;;;;18.00;82.38;101505.94;5073702;28;20051;-57
2021/07/11 02:53:53;;;;;;;24.90;17.10;;;;;;;18.04;82.28;101515.34;5071678;28;20040;-48
2021/07/11 02:56:20;;;;;;;27.20;18.73;;;;;;;18.03;82.72;101510.97;5071017;28;20056;-54
2021/07/11 02:58:50;;;;;;;24.65;18.48;;;;;;;18.02;82.10;101516.44;5088271;28;20051;-56
2021/07/11 03:01:17;;;;;;;26.63;18.75;;;;;;;18.12;82.08;101520.00;5070340;28;20040;-50
2021/07/11 03:03:44;;;;;;;25.73;17.67;;;;;;;18.18;82.23;101529.28;5055145;28;20044;-51
2021/07/11 03:06:12;;;;;;;26.88;19.38;;;;;;;18.12;82.27;101527.13;5071551;28;20063;-46
2021/07/11 03:08:39;;;;;;;27.33;19.70;;;;;;;18.15;82.72;101532.22;5054565;28;20048;-47
2021/07/11 03:11:05;;;;;;;23.30;18.20;;;;;;;18.10;81.88;101523.78;5089078;28;20093;-50
2021/07/11 03:13:34;;;;;;;26.48;19.05;;;;;;;18.14;82.23;101526.03;5089114;28;20059;-50
2021/07/11 03:16:01;;;;;;;24.63;18.85;;;;;;;18.04;82.00;101520.66;5087418;28;20059;-52
2021/07/11 03:18:30;;;;;;;26.88;19.08;;;;;;;18.14;82.20;101520.69;5071282;28;20048;-56
2021/07/11 03:20:57;;;;;;;25.98;18.90;;;;;;;18.14;82.56;101523.34;5072351;28;20068;-57
2021/07/11 03:23:26;;;;;;;23.70;17.98;;;;;;;18.20;82.37;101517.53;5073059;28;20040;-56
2021/07/11 03:25:53;;;;;;;25.02;18.92;;;;;;;18.26;82.51;101525.97;5092086;28;20044;-50
2021/07/11 03:28:21;;;;;;;24.88;18.00;;;;;;;18.20;82.15;101529.97;5091937;28;20048;-50
2021/07/11 03:30:49;;;;;;;25.02;18.50;;;;;;;18.21;82.68;101521.84;5091499;28;20052;-52
2021/07/11 03:33:18;;;;;;;24.20;17.77;;;;;;;18.20;84.26;101529.97;5071564;28;20048;-52
2021/07/11 03:35:53;;;;;;;26.60;18.60;;;;;;;18.19;83.84;101525.66;5071110;28;20052;-47
2021/07/11 03:38:29;;;;;;;25.42;18.88;;;;;;;18.18;82.49;101523.94;5055862;28;20064;-47
2021/07/11 03:40:57;;;;;;;24.55;18.23;;;;;;;18.17;82.71;101524.91;5091886;28;20438;-49
2021/07/11 03:43:25;;;;;;;26.27;19.38;;;;;;;18.25;82.89;101522.44;5094770;28;20123;-49
2021/07/11 03:45:54;;;;;;;26.15;19.45;;;;;;;18.15;84.01;101524.22;5077328;28;20055;-49
2021/07/11 03:48:29;;;;;;;28.73;19.35;;;;;;;18.13;83.82;101523.50;5077473;28;20121;-48
2021/07/11 03:50:58;;;;;;;26.77;18.45;;;;;;;18.20;83.42;101532.63;5077360;28;20455;-49
2021/07/11 03:53:27;;;;;;;24.40;18.38;;;;;;;18.10;84.00;101535.25;5095545;28;20060;-48
2021/07/11 03:55:54;;;;;;;24.65;18.25;;;;;;;18.00;84.55;101531.72;5077315;28;20519;-50
2021/07/11 03:58:22;;;;;;;25.85;18.02;;;;;;;18.00;84.64;101535.22;5077233;28;20048;-49
2021/07/11 04:00:49;;;;;;;26.80;18.55;;;;;;;18.01;84.37;101539.56;5077157;28;20045;-49
2021/07/11 04:03:17;;;;;;;27.95;20.10;;;;;;;18.04;84.07;101543.78;5077077;28;20044;-50
2021/07/11 04:05:44;;;;;;;25.30;18.52;;;;;;;17.99;84.59;101543.31;5094741;28;20056;-51
2021/07/11 04:08:14;;;;;;;26.90;19.42;;;;;;;17.91;84.95;101541.28;5092379;28;20044;-49
2021/07/11 04:10:41;;;;;;;26.23;18.42;;;;;;;17.99;85.06;101540.66;5074044;28;20077;-51
2021/07/11 04:13:08;;;;;;;24.83;18.23;;;;;;;17.99;85.06;101541.50;5093169;28;20051;-49
2021/07/11 04:15:36;;;;;;;24.38;18.48;;;;;;;18.02;85.04;101543.06;5077387;28;20043;-49
2021/07/11 04:18:08;;;;;;;24.77;18.67;;;;;;;18.08;85.08;101548.69;5077099;28;20044;-49
2021/07/11 04:20:36;;;;;;;26.73;18.90;;;;;;;18.00;85.72;101540.53;5077095;28;20500;-51
2021/07/11 04:23:04;;;;;;;26.73;20.00;;;;;;;18.00;85.75;101551.16;5076861;28;20527;-50
2021/07/11 04:25:31;;;;;;;25.40;18.33;;;;;;;17.97;86.09;101547.91;5092166;28;20055;-49
2021/07/11 04:28:00;;;;;;;27.23;19.60;;;;;;;17.91;85.33;101543.94;5091839;28;20040;-52
2021/07/11 04:30:28;;;;;;;26.17;19.55;;;;;;;17.87;86.35;101540.72;5073706;28;20068;-48
2021/07/11 04:32:55;;;;;;;27.98;20.13;;;;;;;17.96;85.94;101549.75;5092308;28;20097;-56
2021/07/11 04:35:22;;;;;;;26.60;19.35;;;;;;;17.93;85.81;101544.69;5076401;28;20043;-57
2021/07/11 04:37:48;;;;;;;27.38;20.65;;;;;;;17.83;85.97;101557.91;5094576;28;20048;-57
2021/07/11 04:40:15;;;;;;;28.08;20.35;;;;;;;17.80;86.01;101554.66;5093802;28;20523;-57
2021/07/11 04:42:44;;;;;;;29.02;21.38;;;;;;;17.96;85.29;101548.91;5091818;28;20048;-57
2021/07/11 04:45:11;;;;;;;27.67;20.92;;;;;;;17.94;85.75;101548.19;5076309;28;20569;-60
2021/07/11 04:47:38;;;;;;;27.55;20.45;;;;;;;17.94;85.92;101550.84;5094642;28;20044;-56
2021/07/11 04:50:06;;;;;;;25.80;20.40;;;;;;;17.83;85.56;101557.06;5091093;28;20529;-57
2021/07/11 04:52:33;;;;;;;29.77;20.30;;;;;;;17.95;85.37;101553.38;5092638;28;20054;-57
2021/07/11 04:55:00;;;;;;;25.63;19.92;;;;;;;17.90;85.67;101547.56;5092029;28;20508;-57
2021/07/11 04:57:26;;;;;;;28.50;20.67;;;;;;;17.88;85.57;101552.19;5073831;28;20047;-58
2021/07/11 04:59:53;;;;;;;27.73;20.63;;;;;;;17.88;84.93;101546.88;5090503;28;20064;-58
2021/07/11 05:02:20;;;;;;;28.55;21.10;;;;;;;17.90;85.24;101550.22;5094248;28;20044;-58
2021/07/11 05:04:47;;;;;;;28.95;20.95;;;;;;;18.03;84.65;101550.91;5094193;28;20532;-56
2021/07/11 05:07:13;;;;;;;26.70;20.52;;;;;;;17.95;84.76;101557.88;5059714;28;20051;-50
2021/07/11 05:09:40;;;;;;;28.30;20.52;;;;;;;17.95;85.41;101556.03;5092563;28;20519;-51
2021/07/11 05:12:07;;;;;;;30.30;22.40;;;;;;;18.00;86.26;101553.84;5090917;28;20051;-49
2021/07/11 05:14:34;;;;;;;27.98;21.15;;;;;;;18.00;84.99;101548.50;5089771;28;20504;-57
2021/07/11 05:17:01;;;;;;;27.02;21.15;;;;;;;18.01;85.61;101552.00;5091783;28;20055;-57
2021/07/11 05:19:27;;;;;;;27.48;20.38;;;;;;;18.05;84.92;101548.09;5091445;28;20048;-57
2021/07/11 05:21:54;;;;;;;28.00;21.50;;;;;;;18.04;85.24;101543.78;5073576;28;20143;-57
2021/07/11 05:24:21;;;;;;;28.48;21.88;;;;;;;18.06;85.35;101544.47;5093346;28;20105;-57
2021/07/11 05:26:48;;;;;;;28.23;21.35;;;;;;;18.15;85.20;101550.84;5076168;28;20040;-51
2021/07/11 05:29:14;;;;;;;28.15;21.95;;;;;;;18.20;84.55;101556.59;5075862;28;20055;-50
2021/07/11 05:31:41;;;;;;;28.98;20.92;;;;;;;18.21;84.38;101552.97;5090723;28;20075;-50
2021/07/11 05:34:08;;;;;;;30.88;21.92;;;;;;;18.22;85.23;101538.69;5090938;28;20749;-49
2021/07/11 05:36:35;;;;;;;28.15;21.02;;;;;;;18.21;84.44;101539.66;5091052;28;20051;-51
2021/07/11 05:39:02;;;;;;;27.92;21.48;;;;;;;18.20;84.81;101538.81;5090441;28;20042;-48
2021/07/11 05:41:29;;;;;;;29.50;21.92;;;;;;;18.31;84.68;101537.03;5090523;28;20097;-48
2021/07/11 05:43:57;;;;;;;28.02;21.50;;;;;;;18.24;85.54;101540.22;5091408;28;20054;-56
2021/07/11 05:46:23;;;;;;;29.90;21.23;;;;;;;18.30;84.57;101538.03;5090345;28;20484;-57
2021/07/11 05:48:51;;;;;;;32.38;21.02;;;;;;;18.27;84.20;101540.94;5091789;28;20111;-57
2021/07/11 05:51:17;;;;;;;30.80;22.08;;;;;;;18.31;85.17;101545.00;5092984;28;20129;-58
2021/07/11 05:53:44;;;;;;;29.50;22.17;;;;;;;18.38;85.55;101541.69;5091506;28;20048;-57
2021/07/11 05:56:11;;;;;;;31.17;21.92;;;;;;;18.40;84.40;101523.75;5090648;28;20048;-57
2021/07/11 05:58:38;;;;;;;29.13;21.50;;;;;;;18.45;84.41;101523.34;5091103;28;20456;-57
2021/07/11 06:01:07;;;;;;;29.70;22.02;;;;;;;18.41;85.46;101521.94;5075087;28;20388;-57
2021/07/11 06:03:34;;;;;;;29.27;21.70;;;;;;;18.48;85.06;101520.41;5092949;28;20101;-57
2021/07/11 06:06:01;;;;;;;31.88;22.42;;;;;;;18.44;85.00;101520.81;5069266;28;20052;-56
2021/07/11 06:08:28;;;;;;;29.65;21.80;;;;;;;18.53;84.43;101525.34;5071760;28;20048;-57
2021/07/11 06:10:55;;;;;;;28.48;21.38;;;;;;;18.60;84.00;101531.81;5055276;28;20056;-57
2021/07/11 06:13:22;;;;;;;28.85;22.10;;;;;;;18.58;83.09;101534.63;5073178;28;20048;-57
2021/07/11 06:15:50;;;;;;;33.03;22.17;;;;;;;18.66;82.63;101531.25;5054892;28;20057;-57
2021/07/11 06:18:17;;;;;;;31.00;21.80;;;;;;;18.71;82.71;101537.03;5072876;28;20115;-57
2021/07/11 06:20:45;;;;;;;28.58;21.27;;;;;;;18.66;82.89;101533.91;5071732;28;20048;-57
2021/07/11 06:23:12;;;;;;;27.20;22.35;;;;;;;18.74;83.07;101534.06;5069453;28;20496;-57
2021/07/11 06:25:40;;;;;;;32.90;22.63;;;;;;;18.77;82.52;101527.63;5069900;28;20437;-57
2021/07/11 06:28:07;;;;;;;28.30;21.67;;;;;;;18.80;81.84;101535.38;5054408;28;20063;-57
2021/07/11 06:30:35;;;;;;;29.77;21.67;;;;;;;18.87;80.97;101528.50;5072741;28;20090;-58
2021/07/11 06:33:02;;;;;;;29.65;21.83;;;;;;;18.99;81.30;101518.59;5055037;28;20799;-58
2021/07/11 06:35:29;;;;;;;29.45;21.42;;;;;;;19.01;81.67;101526.47;5072135;28;20515;-58
2021/07/11 06:37:55;;;;;;;27.02;20.33;;;;;;;19.07;80.88;101528.56;5054344;28;20048;-58
2021/07/11 06:40:24;;;;;;;28.80;21.17;;;;;;;19.18;80.64;101541.78;5054969;28;20542;-58
2021/07/11 06:42:51;;;;;;;30.63;21.55;;;;;;;19.23;79.77;101555.50;5072550;28;20044;-58
2021/07/11 06:45:18;;;;;;;27.20;19.92;;;;;;;19.18;79.19;101564.91;5072794;28;20550;-48
2021/07/11 06:47:45;;;;;;;26.20;20.20;;;;;;;19.28;78.99;101563.09;5070807;28;20052;-51
2021/07/11 06:50:14;;;;;;;28.42;21.17;;;;;;;19.29;80.22;101563.94;5069675;28;20056;-50
2021/07/11 06:52:41;;;;;;;28.15;20.83;;;;;;;19.32;79.44;101564.50;5051641;28;20056;-52
2021/07/11 06:55:09;;;;;;;28.95;21.02;;;;;;;19.42;80.63;101570.66;5068678;28;20512;-53
2021/07/11 06:57:38;;;;;;;27.88;21.10;;;;;;;19.63;79.97;101566.16;5053528;28;20098;-51
2021/07/11 07:00:08;;;;;;;29.98;22.25;;;;;;;19.69;79.07;101569.09;5066298;28;20056;-53
2021/07/11 07:02:35;;;;;;;27.40;20.20;;;;;;;19.87;78.77;101574.59;5069418;28;20065;-49
2021/07/11 07:05:03;;;;;;;30.08;20.27;;;;;;;19.94;77.17;101580.19;5058330;28;20456;-52
2021/07/11 07:07:31;;;;;;;25.83;20.20;;;;;;;20.08;78.68;101565.53;5092000;28;20392;-53
2021/07/11 07:09:58;;;;;;;26.60;20.92;;;;;;;20.18;78.20;101573.50;5092018;28;20064;-51
2021/07/11 07:12:25;;;;;;;27.70;21.17;;;;;;;20.29;77.00;101573.38;5074369;28;20048;-59
2021/07/11 07:14:52;;;;;;;31.50;22.95;;;;;;;20.28;76.22;101569.00;5074329;28;20097;-59
2021/07/11 07:17:18;;;;;;;30.58;22.90;;;;;;;20.12;76.26;101572.28;5093929;28;20056;-58
2021/07/11 07:19:45;;;;;;;30.73;22.20;;;;;;;20.26;76.80;101579.00;5096396;28;20052;-58
2021/07/11 07:22:12;;;;;;;25.52;20.77;;;;;;;20.43;76.05;101577.38;5096227;28;20032;-58
2021/07/11 07:24:39;;;;;;;27.02;19.73;;;;;;;20.57;75.31;101581.38;5093969;28;20554;-59
2021/07/11 07:27:06;;;;;;;27.75;20.67;;;;;;;20.66;75.49;101579.69;5076379;28;20043;-58
2021/07/11 07:29:33;;;;;;;29.02;19.88;;;;;;;20.76;75.05;101567.97;5095345;28;20040;-58
2021/07/11 07:31:59;;;;;;;27.38;20.30;;;;;;;20.86;74.36;101575.06;5093315;28;20046;-58
2021/07/11 07:34:26;;;;;;;26.67;20.40;;;;;;;20.92;74.00;101575.31;5094324;28;20094;-58
2021/07/11 07:36:55;;;;;;;26.20;20.00;;;;;;;21.08;75.22;101579.19;5094011;28;20066;-58
2021/07/11 07:39:21;;;;;;;25.63;19.73;;;;;;;21.24;75.21;101583.81;5094957;28;20040;-58
2021/07/11 07:41:48;;;;;;;25.95;19.92;;;;;;;21.39;72.30;101574.28;5095063;28;20110;-58
2021/07/11 07:44:19;;;;;;;24.80;19.42;;;;;;;21.52;72.18;101578.41;5092155;28;20063;-59
2021/07/11 07:46:46;;;;;;;23.02;17.67;;;;;;;21.41;70.51;101582.16;5075704;28;20048;-59
2021/07/11 07:49:13;;;;;;;22.48;17.75;;;;;;;21.45;69.11;101584.38;5093030;28;20128;-59
2021/07/11 07:51:40;;;;;;;24.27;17.15;;;;;;;21.33;70.56;101582.91;5093124;28;20055;-59
2021/07/11 07:54:07;;;;;;;22.80;17.33;;;;;;;21.46;69.92;101585.22;5078194;28;20082;-59
2021/07/11 07:56:34;;;;;;;22.55;16.52;;;;;;;21.58;69.56;101585.84;5076890;28;20059;-59
2021/07/11 07:59:01;;;;;;;23.70;16.70;;;;;;;21.63;70.29;101583.53;5093885;28;20036;-58
2021/07/11 08:01:28;;;;;;;23.20;16.67;;;;;;;21.66;69.40;101587.75;5094441;28;20052;-59
2021/07/11 08:03:54;;;;;;;21.85;16.90;;;;;;;21.71;68.86;101588.13;5094347;28;20059;-59
2021/07/11 08:06:21;;;;;;;23.67;19.17;;;;;;;21.66;70.22;101593.94;5094109;28;20101;-59
2021/07/11 08:08:48;;;;;;;27.58;20.25;;;;;;;21.65;69.40;101591.41;5093444;28;20523;-59
2021/07/11 08:11:15;;;;;;;27.42;19.83;;;;;;;21.70;69.44;101597.97;5075935;28;20050;-59
2021/07/11 08:13:42;;;;;;;28.30;21.10;;;;;;;21.70;70.06;101597.97;5093980;28;20052;-59
2021/07/11 08:16:09;;;;;;;27.67;20.80;;;;;;;21.66;70.15;101604.63;5076265;28;20080;-54
2021/07/11 08:18:36;;;;;;;26.05;19.95;;;;;;;21.57;69.49;101605.59;5092950;28;20085;-54
2021/07/11 08:21:03;;;;;;;26.73;20.50;;;;;;;21.65;68.78;101607.47;5092453;28;20528;-53
2021/07/11 08:23:30;;;;;;;26.27;20.20;;;;;;;21.64;68.78;101608.47;5092668;28;20043;-54
2021/07/11 08:25:57;;;;;;;25.92;20.88;;;;;;;21.68;68.14;101610.69;5091645;28;20059;-55
2021/07/11 08:28:24;;;;;;;24.90;20.38;;;;;;;21.61;69.37;101612.31;5073683;28;20048;-54
2021/07/11 08:30:50;;;;;;;26.80;20.10;;;;;;;21.53;68.24;101614.88;5090338;28;20036;-55
2021/07/11 08:33:17;;;;;;;24.60;18.80;;;;;;;21.57;69.33;101619.78;5093925;28;20052;-55
2021/07/11 08:35:44;;;;;;;25.65;19.25;;;;;;;21.33;69.25;101624.88;5076536;28;20044;-55
2021/07/11 08:38:11;;;;;;;23.65;18.90;;;;;;;21.38;69.35;101622.59;5074165;28;20044;-54
2021/07/11 08:40:38;;;;;;;26.42;19.35;;;;;;;21.42;69.34;101634.69;5075789;28;20147;-59
2021/07/11 08:43:06;;;;;;;26.35;19.67;;;;;;;21.39;69.02;101630.47;5094976;28;20428;-58
2021/07/11 08:45:37;;;;;;;22.60;18.63;;;;;;;21.31;70.93;101621.50;5076629;28;20159;-58
2021/07/11 08:48:04;;;;;;;24.88;19.38;;;;;;;21.50;69.49;101624.06;5076812;28;20488;-58
2021/07/11 08:50:33;;;;;;;22.98;17.85;;;;;;;21.44;68.69;101630.00;5077134;28;20515;-58
2021/07/11 08:53:00;;;;;;;22.15;17.33;;;;;;;21.42;69.24;101622.13;5076938;28;20088;-58
2021/07/11 08:55:27;;;;;;;26.20;19.30;;;;;;;21.50;68.94;101634.75;5058532;28;20047;-58
2021/07/11 08:57:59;;;;;;;21.75;17.65;;;;;;;21.40;70.23;101628.63;5074722;28;20074;-58
2021/07/11 09:00:31;;;;;;;24.35;18.90;;;;;;;21.49;69.58;101642.91;5076887;28;20051;-58
2021/07/11 09:02:58;;;;;;;23.02;18.27;;;;;;;21.56;68.85;101641.38;5094304;28;20044;-58
2021/07/11 09:05:28;;;;;;;24.83;18.73;;;;;;;21.51;68.92;101633.75;5092872;28;20117;-58
2021/07/11 09:08:14;;;;;;;23.00;18.77;;;;;;;21.67;69.50;101638.44;5094143;28;20052;-58
2021/07/11 09:10:50;;;;;;;24.90;18.58;;;;;;;21.82;68.13;101627.19;5092675;28;20073;-58
2021/07/11 09:13:22;;;;;;;23.02;17.60;;;;;;;21.95;67.58;101633.81;5093324;28;20047;-52
2021/07/11 09:15:51;;;;;;;26.03;19.10;;;;;;;22.05;66.38;101639.09;5094179;28;20047;-53
2021/07/11 09:18:36;;;;;;;24.27;17.83;;;;;;;22.15;66.63;101640.81;5074301;28;20044;-52
2021/07/11 09:21:08;;;;;;;24.67;18.40;;;;;;;22.33;66.20;101638.09;5091083;28;20123;-52
2021/07/11 09:23:37;;;;;;;24.38;17.20;;;;;;;22.69;65.23;101633.47;5076448;28;20052;-52
2021/07/11 09:26:13;;;;;;;24.20;17.58;;;;;;;23.12;64.62;101638.78;5094196;28;20055;-53
2021/07/11 09:28:47;;;;;;;22.73;17.83;;;;;;;23.54;64.17;101642.44;5076009;28;20044;-51
2021/07/11 09:31:15;;;;;;;23.08;17.05;;;;;;;23.67;62.29;101639.25;5093879;28;20093;-54
2021/07/11 09:33:44;;;;;;;23.73;17.20;;;;;;;24.03;61.08;101642.44;5093701;28;20054;-53
2021/07/11 09:36:15;;;;;;;23.90;18.30;;;;;;;24.10;60.22;101643.44;5056973;28;20541;-53
2021/07/11 09:38:51;;;;;;;22.67;17.45;;;;;;;24.05;59.25;101639.59;5092375;28;20048;-52
2021/07/11 09:41:33;;;;;;;20.63;15.13;;;;;;;24.27;56.88;101643.44;5074800;28;20048;-53
2021/07/11 09:44:06;;;;;;;20.20;15.93;;;;;;;24.13;59.20;101636.88;5093626;28;20389;-53
2021/07/11 09:46:34;;;;;;;24.10;17.00;;;;;;;24.23;58.06;101636.72;5093117;28;20058;-54
2021/07/11 09:49:03;;;;;;;20.17;15.32;;;;;;;24.42;58.38;101639.03;5074758;28;20040;-53
2021/07/11 09:51:31;;;;;;;19.10;14.93;;;;;;;24.78;59.25;101640.44;5091241;28;20672;-54
2021/07/11 09:54:12;;;;;;;22.23;16.42;;;;;;;24.72;57.25;101639.28;5090568;28;20051;-54
2021/07/11 09:56:42;;;;;;;21.02;15.23;;;;;;;24.48;58.12;101641.00;5072696;28;20066;-54
2021/07/11 09:59:11;;;;;;;18.90;15.27;;;;;;;24.27;57.70;101643.44;5071731;28;20071;-54
2021/07/11 10:01:40;;;;;;;18.77;14.30;;;;;;;24.22;58.16;101643.09;5071739;28;20044;-52
2021/07/11 10:04:08;;;;;;;17.48;13.15;;;;;;;24.18;58.56;101649.81;5090356;28;20489;-51
2021/07/11 10:06:36;;;;;;;15.23;11.18;;;;;;;24.18;58.07;101647.97;5092810;28;20707;-52
2021/07/11 10:09:08;;;;;;;18.48;12.88;;;;;;;24.23;57.78;101647.47;5089378;28;20105;-55
2021/07/11 10:11:37;;;;;;;17.02;12.98;;;;;;;24.26;58.64;101647.13;5072929;28;20052;-54
2021/07/11 10:14:04;;;;;;;18.52;13.73;;;;;;;24.06;58.19;101652.03;5090178;28;20117;-53
2021/07/11 10:16:34;;;;;;;18.35;14.00;;;;;;;24.31;58.58;101650.16;5090489;28;20040;-51
2021/07/11 10:19:02;;;;;;;19.73;14.43;;;;;;;24.24;58.93;101651.81;5075186;28;20056;-54
2021/07/11 10:21:31;;;;;;;18.77;13.98;;;;;;;24.27;58.23;101652.31;5072355;28;20090;-53
2021/07/11 10:23:59;;;;;;;19.55;14.77;;;;;;;24.39;58.05;101647.44;5072076;28;20058;-54
2021/07/11 10:26:37;;;;;;;21.17;15.65;;;;;;;24.36;59.19;101647.75;5072348;28;20634;-55
2021/07/11 10:29:21;;;;;;;20.50;15.10;;;;;;;24.34;57.96;101654.31;5071801;28;20040;-51
2021/07/11 10:31:53;;;;;;;19.73;15.60;;;;;;;23.99;59.01;101654.53;5071872;28;20040;-51
2021/07/11 10:34:32;;;;;;;19.63;15.75;;;;;;;24.17;58.05;101654.34;5074903;28;20052;-51
2021/07/11 10:37:10;;;;;;;18.55;13.95;;;;;;;24.75;57.55;101656.94;5092874;28;20504;-51
2021/07/11 10:39:37;;;;;;;16.30;12.38;;;;;;;25.07;56.73;101647.88;5092774;28;20500;-52
2021/07/11 10:42:04;;;;;;;15.95;12.30;;;;;;;25.29;54.27;101648.06;5092632;28;20072;-51
2021/07/11 10:44:31;;;;;;;15.43;11.73;;;;;;;25.68;53.96;101636.38;5088454;28;20708;-52
2021/07/11 10:47:03;;;;;;;14.88;9.77;;;;;;;26.13;53.55;101626.53;5090003;28;20527;-48
2021/07/11 10:49:49;;;;;;;14.23;10.27;;;;;;;26.27;52.84;101632.13;5092188;28;20127;-52
2021/07/11 10:52:25;;;;;;;12.93;9.38;;;;;;;26.52;51.00;101627.31;5055792;28;20565;-51
2021/07/11 10:54:59;;;;;;;13.10;9.25;;;;;;;26.61;51.61;101634.28;5071158;28;20055;-50
2021/07/11 10:57:37;;;;;;;15.32;10.18;;;;;;;26.85;49.59;101632.31;5074598;28;20132;-50
2021/07/11 11:00:12;;;;;;;12.43;9.48;;;;;;;26.97;50.14;101627.28;5070788;28;20067;-50
2021/07/11 11:02:40;;;;;;;13.30;9.48;;;;;;;26.93;49.10;101628.69;5088597;28;20048;-51
2021/07/11 11:05:12;;;;;;;14.70;9.77;;;;;;;27.01;48.09;101627.72;5071220;28;20063;-50
2021/07/11 11:07:45;;;;;;;14.52;10.55;;;;;;;27.16;48.33;101633.94;5089882;28;20048;-52
2021/07/11 11:10:19;;;;;;;13.88;10.25;;;;;;;27.38;48.10;101624.00;5089961;28;20067;-58
2021/07/11 11:12:58;;;;;;;12.32;8.88;;;;;;;27.63;47.68;101626.31;5092419;28;20056;-57
2021/07/11 11:15:32;;;;;;;15.73;12.25;;;;;;;27.80;46.64;101622.28;5092215;28;20452;-59